Hinckley, Ohio
Current Conditions -  °F | °C
As of 3:51 PM on Tuesday 25 Nov 2014 (Local Time) from KCLE Reporting Station
Overcast Overcast  
Wind Chill: 25°   Ceiling: 2100
Heat Index: 35°   Visibility: 10mi
Dew Point: 27°   Wind: 16mph
Humidity: 72%   Direction: 260°W
Pressure: 30.12"   Gusts: NA
Location:  41.24°N, 81.75°W
Report Text: KCLE 252051Z 26014KT 10SM OVC021 02/M03 A3012 RMK AO2 SLP207 T00171028 53021 $
Loading
Personal Weather Stations






























Interactive Weather Map New forecast layout! Learn more

10-Day Weather Forecast

Advertisements
Track Severe Weather on mobile